createdAt,value
2022-11-14T00:00:55.248Z,51.22
2022-11-14T00:03:42.170Z,34.90
2022-11-14T00:06:15.247Z,36.40
2022-11-14T00:09:02.181Z,37.22
2022-11-14T00:11:35.230Z,35.08
2022-11-14T00:14:22.157Z,52.75
2022-11-14T00:16:55.229Z,46.60
2022-11-14T00:19:42.179Z,43.35
2022-11-14T00:22:15.228Z,35.72
2022-11-14T00:25:09.187Z,29.15
2022-11-14T00:28:03.188Z,33.60
2022-11-14T00:30:54.190Z,43.00
2022-11-14T00:33:34.170Z,47.92
2022-11-14T00:36:21.172Z,32.47
2022-11-14T00:38:54.956Z,40.08
2022-11-14T00:41:41.156Z,33.67
2022-11-14T00:44:21.189Z,45.80
2022-11-14T00:47:15.187Z,42.90
2022-11-14T00:50:09.192Z,31.60
2022-11-14T00:52:56.185Z,44.25
2022-11-14T00:55:29.234Z,38.03
2022-11-14T00:58:16.183Z,26.17
2022-11-14T01:00:49.285Z,45.75
2022-11-14T01:03:36.190Z,41.00
2022-11-14T01:06:16.488Z,38.65
2022-11-14T01:09:03.219Z,27.35
2022-11-14T01:11:36.266Z,29.52
2022-11-14T01:14:23.176Z,25.25
2022-11-14T01:16:56.261Z,35.83
2022-11-14T01:19:43.195Z,35.92
2022-11-14T01:22:16.259Z,43.97
2022-11-14T01:25:10.204Z,29.80
2022-11-14T01:27:57.211Z,34.13
2022-11-14T01:30:30.274Z,23.58
2022-11-14T01:33:17.200Z,24.08
2022-11-14T01:35:50.352Z,42.38
2022-11-14T01:38:37.211Z,32.05
2022-11-14T01:41:11.277Z,36.63
2022-11-14T01:43:58.203Z,32.30
2022-11-14T01:46:42.262Z,28.48
2022-11-14T01:49:33.201Z,72.65
2022-11-14T01:52:20.193Z,51.25
2022-11-14T01:55:11.270Z,33.88
2022-11-14T01:57:57.199Z,41.58
2022-11-14T02:00:44.207Z,35.10
2022-11-14T02:03:20.300Z,57.10
2022-11-14T02:06:08.212Z,29.88
2022-11-14T02:08:43.284Z,29.38
2022-11-14T02:11:30.208Z,25.48
2022-11-14T02:14:04.274Z,31.13
2022-11-14T02:17:07.630Z,38.50
2022-11-14T02:20:11.429Z,26.15
2022-11-14T02:22:58.214Z,28.30
2022-11-14T02:25:32.296Z,28.70
2022-11-14T02:28:19.239Z,24.55
2022-11-14T02:30:52.289Z,25.63
2022-11-14T02:33:39.205Z,24.48
2022-11-14T02:36:26.211Z,23.00
2022-11-14T02:39:20.210Z,28.25
2022-11-14T02:42:07.233Z,23.20
2022-11-14T02:44:40.289Z,35.92
2022-11-14T02:47:27.231Z,20.90
2022-11-14T02:50:00.288Z,23.27
2022-11-14T02:52:47.214Z,28.80
2022-11-14T02:55:27.225Z,32.88
2022-11-14T02:58:14.216Z,30.35
2022-11-14T03:01:13.461Z,30.88
2022-11-14T03:03:54.216Z,20.65
2022-11-14T03:06:27.328Z,23.02
2022-11-14T03:09:14.235Z,21.05
2022-11-14T03:11:47.567Z,20.58
2022-11-14T03:14:34.248Z,21.08
2022-11-14T03:17:14.230Z,33.95
2022-11-14T03:20:08.244Z,31.40
2022-11-14T03:22:55.229Z,21.40
2022-11-14T03:25:28.292Z,32.35
2022-11-14T03:28:15.241Z,35.90
2022-11-14T03:30:48.304Z,28.23
2022-11-14T03:33:35.244Z,30.27
2022-11-14T03:36:16.240Z,31.88
2022-11-14T03:39:10.240Z,35.85
2022-11-14T03:41:57.239Z,30.75
2022-11-14T03:44:30.341Z,21.90
2022-11-14T03:47:17.232Z,21.58
2022-11-14T03:49:57.255Z,21.75
2022-11-14T03:52:44.256Z,27.55
2022-11-14T03:55:24.236Z,21.80
2022-11-14T03:58:11.233Z,22.73
2022-11-14T04:00:44.429Z,22.35
2022-11-14T04:03:32.242Z,21.67
2022-11-14T04:06:05.343Z,25.33
2022-11-14T04:08:52.246Z,21.15
2022-11-14T04:11:33.244Z,20.10
2022-11-14T04:14:20.257Z,26.05
2022-11-14T04:16:53.312Z,25.10
2022-11-14T04:19:40.241Z,33.78
2022-11-14T04:22:20.244Z,30.33
2022-11-14T04:25:07.294Z,21.40
2022-11-14T04:28:01.252Z,39.38
2022-11-14T04:30:55.256Z,28.40
2022-11-14T04:33:42.257Z,25.00
2022-11-14T04:36:15.337Z,27.23
2022-11-14T04:39:02.268Z,26.17
2022-11-14T04:41:35.335Z,23.05
2022-11-14T04:44:22.246Z,22.98
2022-11-14T04:46:55.601Z,27.83
2022-11-14T04:49:42.259Z,31.25
2022-11-14T04:52:15.327Z,23.73
2022-11-14T04:55:02.267Z,32.05
2022-11-14T04:57:36.351Z,23.90
2022-11-14T05:00:23.275Z,21.35
2022-11-14T05:03:03.261Z,20.08
2022-11-14T05:05:50.267Z,31.20
2022-11-14T05:08:23.403Z,22.23
2022-11-14T05:11:10.285Z,32.05
2022-11-14T05:13:43.352Z,26.63
2022-11-14T05:16:30.248Z,39.75
2022-11-14T05:19:10.272Z,27.02
2022-11-14T05:22:04.267Z,22.50
2022-11-14T05:24:51.275Z,44.60
2022-11-14T05:27:31.301Z,25.77
2022-11-14T05:30:25.304Z,21.15
2022-11-14T05:33:19.274Z,20.95
2022-11-14T05:36:17.267Z,23.45
2022-11-14T05:38:50.416Z,25.42
2022-11-14T05:41:37.271Z,19.67
2022-11-14T05:44:11.365Z,23.73
2022-11-14T05:46:58.277Z,45.40
2022-11-14T05:49:31.368Z,21.05
2022-11-14T05:52:18.295Z,20.50
2022-11-14T05:54:51.341Z,39.92
2022-11-14T05:57:38.277Z,47.05
2022-11-14T06:00:19.275Z,24.90
2022-11-14T06:03:13.304Z,31.88
2022-11-14T06:06:07.293Z,24.08
2022-11-14T06:08:55.286Z,26.95
2022-11-14T06:11:28.423Z,26.08
2022-11-14T06:14:15.285Z,24.77
2022-11-14T06:16:48.374Z,23.65
2022-11-14T06:19:35.293Z,42.15
2022-11-14T06:22:08.379Z,29.50
2022-11-14T06:24:55.302Z,28.02
2022-11-14T06:27:28.388Z,26.98
2022-11-14T06:30:15.322Z,27.58
2022-11-14T06:32:48.360Z,40.17
2022-11-14T06:35:35.420Z,21.65
2022-11-14T06:38:08.384Z,22.38
2022-11-14T06:40:55.280Z,41.83
2022-11-14T06:43:28.372Z,37.33
2022-11-14T06:46:17.291Z,39.65
2022-11-14T06:48:52.628Z,64.20
2022-11-14T06:51:42.327Z,23.85
2022-11-14T06:54:18.352Z,33.00
2022-11-14T06:57:05.307Z,31.77
2022-11-14T06:59:45.299Z,21.90
2022-11-14T07:02:32.314Z,23.27
2022-11-14T07:05:05.390Z,31.23
2022-11-14T07:07:52.328Z,32.05
2022-11-14T07:10:32.328Z,30.20
2022-11-14T07:13:26.304Z,29.80
2022-11-14T07:16:13.324Z,35.60
2022-11-14T07:18:46.425Z,39.25
2022-11-14T07:21:35.335Z,50.75
2022-11-14T07:24:08.448Z,30.33
2022-11-14T07:26:55.304Z,39.92
2022-11-14T07:29:35.334Z,38.30
2022-11-14T07:32:22.356Z,31.88
2022-11-14T07:35:00.799Z,30.63
2022-11-14T07:37:49.317Z,46.13
2022-11-14T07:40:23.472Z,33.63
2022-11-14T07:43:10.340Z,29.08
2022-11-14T07:45:43.386Z,30.17
2022-11-14T07:48:30.684Z,30.80
2022-11-14T07:51:15.334Z,33.50
2022-11-14T07:54:09.334Z,27.90
2022-11-14T07:57:03.332Z,26.58
2022-11-14T07:59:50.337Z,38.88
2022-11-14T08:02:23.452Z,28.38
2022-11-14T08:05:10.307Z,25.02
2022-11-14T08:07:43.414Z,28.00
2022-11-14T08:10:33.586Z,27.58
2022-11-14T08:13:31.146Z,23.95
2022-11-14T08:16:17.332Z,26.65
2022-11-14T08:18:50.395Z,24.73
2022-11-14T08:21:37.348Z,22.17
2022-11-14T08:24:17.382Z,30.00
2022-11-14T08:27:11.334Z,26.80
2022-11-14T08:29:58.338Z,24.80
2022-11-14T08:32:38.349Z,21.80
2022-11-14T08:35:25.356Z,22.20
2022-11-14T08:37:58.465Z,28.15
2022-11-14T08:40:45.354Z,24.55
2022-11-14T08:43:18.498Z,24.85
2022-11-14T08:46:10.353Z,21.15
2022-11-14T08:48:43.437Z,24.40
2022-11-14T08:51:30.347Z,26.13
2022-11-14T08:54:03.435Z,26.33
2022-11-14T08:56:50.354Z,21.05
2022-11-14T08:59:23.434Z,25.95
2022-11-14T09:02:10.341Z,23.50
2022-11-14T09:04:43.510Z,20.65
2022-11-14T09:07:30.455Z,25.45
2022-11-14T09:10:06.490Z,25.38
2022-11-14T09:12:53.376Z,24.40
2022-11-14T09:15:26.432Z,24.80
2022-11-14T09:18:16.373Z,20.90
2022-11-14T09:20:59.360Z,20.33
2022-11-14T09:23:46.351Z,22.90
2022-11-14T09:26:27.382Z,26.35
2022-11-14T09:29:21.434Z,24.63
2022-11-14T09:32:08.383Z,25.77
2022-11-14T09:34:44.867Z,23.67
2022-11-14T09:37:31.377Z,23.73
2022-11-14T09:40:04.478Z,22.15
2022-11-14T09:43:00.362Z,18.88
2022-11-14T09:45:34.460Z,23.60
2022-11-14T09:48:25.373Z,24.88
2022-11-14T09:51:17.504Z,24.65
2022-11-14T09:54:19.370Z,32.55
2022-11-14T09:56:59.396Z,23.98
2022-11-14T09:59:53.367Z,22.67
2022-11-14T10:03:11.356Z,22.45
2022-11-14T10:06:03.477Z,24.90
2022-11-14T10:09:02.386Z,23.75
2022-11-14T10:12:09.379Z,25.85
2022-11-14T10:14:59.384Z,27.38
2022-11-14T10:18:11.397Z,27.83
2022-11-14T10:21:09.379Z,30.15
2022-11-14T10:24:29.383Z,24.27
2022-11-14T10:27:34.384Z,28.83
2022-11-14T10:30:25.392Z,27.33
2022-11-14T10:33:24.701Z,29.42
2022-11-14T10:36:20.635Z,29.55
2022-11-14T10:39:27.568Z,26.20
2022-11-14T10:42:39.421Z,25.25
2022-11-14T10:45:42.398Z,28.10
2022-11-14T10:49:00.228Z,27.75
2022-11-14T10:51:53.393Z,27.98
2022-11-14T10:54:50.394Z,30.45
2022-11-14T10:57:44.411Z,24.10
2022-11-14T11:00:38.464Z,24.55
2022-11-14T11:03:32.459Z,25.45
2022-11-14T11:06:40.393Z,27.77
2022-11-14T11:09:49.463Z,24.17
2022-11-14T11:12:36.448Z,26.52
2022-11-14T11:15:39.430Z,25.58
2022-11-14T11:18:50.826Z,29.33
2022-11-14T11:21:29.537Z,29.85
2022-11-14T11:24:16.416Z,26.73
2022-11-14T11:26:49.465Z,26.40
2022-11-14T11:29:36.414Z,28.67
2022-11-14T11:32:10.065Z,34.45
2022-11-14T11:34:58.427Z,31.70
2022-11-14T11:37:53.405Z,25.42
2022-11-14T11:40:48.410Z,24.83
2022-11-14T11:43:56.690Z,24.95
2022-11-14T11:46:43.474Z,27.08
2022-11-14T11:49:52.996Z,27.10
2022-11-14T11:52:34.546Z,25.20
2022-11-14T11:55:32.426Z,25.48
2022-11-14T11:58:12.799Z,24.60
2022-11-14T12:01:03.434Z,25.15
2022-11-14T12:03:43.647Z,30.13
2022-11-14T12:06:43.456Z,26.08
2022-11-14T12:10:09.195Z,26.70
2022-11-14T12:12:56.420Z,26.25
2022-11-14T12:16:12.884Z,23.35
2022-11-14T12:19:18.423Z,25.23
2022-11-14T12:22:27.465Z,24.60
2022-11-14T12:25:35.410Z,25.67
2022-11-14T12:28:38.428Z,24.13
2022-11-14T12:31:25.444Z,24.05
2022-11-14T12:34:09.527Z,25.75
2022-11-14T12:36:56.470Z,25.52
2022-11-14T12:39:37.423Z,21.65
2022-11-14T12:42:27.446Z,20.85
2022-11-14T12:45:07.420Z,22.40
2022-11-14T12:48:41.449Z,23.67
2022-11-14T12:51:31.462Z,22.00
2022-11-14T12:54:04.513Z,23.15
2022-11-14T12:57:05.442Z,22.77
2022-11-14T12:59:46.557Z,25.20
2022-11-14T13:03:06.445Z,21.35
2022-11-14T13:06:03.464Z,23.80
2022-11-14T13:09:05.460Z,21.27
2022-11-14T13:12:03.441Z,24.55
2022-11-14T13:15:23.459Z,25.27
2022-11-14T13:18:40.440Z,23.58
2022-11-14T13:21:51.464Z,23.25
2022-11-14T13:25:13.484Z,22.42
2022-11-14T13:28:11.222Z,22.48
2022-11-14T13:31:20.445Z,23.23
2022-11-14T13:34:08.475Z,22.73
2022-11-14T13:36:47.527Z,22.88
2022-11-14T13:39:46.481Z,20.40
2022-11-14T13:42:38.522Z,24.80
2022-11-14T13:45:28.464Z,19.50
2022-11-14T13:48:15.548Z,23.48
2022-11-14T13:51:28.951Z,19.40
2022-11-14T13:54:07.470Z,20.88
2022-11-14T13:57:13.471Z,23.77
2022-11-14T14:00:09.475Z,24.50
2022-11-14T14:03:00.729Z,30.60
2022-11-14T14:06:06.034Z,39.90
2022-11-14T14:09:01.471Z,32.85
2022-11-14T14:12:19.468Z,25.65
2022-11-14T14:15:28.489Z,30.38
2022-11-14T14:18:44.057Z,34.60
2022-11-14T14:21:46.483Z,26.02
2022-11-14T14:24:32.484Z,20.67
2022-11-14T14:27:26.480Z,21.05
2022-11-14T14:30:22.508Z,21.73
2022-11-14T14:33:18.571Z,21.55
2022-11-14T14:36:05.494Z,22.60
2022-11-14T14:38:39.521Z,24.85
2022-11-14T14:41:26.476Z,22.88
2022-11-14T14:44:08.508Z,23.45
2022-11-14T14:46:55.482Z,22.92
2022-11-14T14:49:43.516Z,23.60
2022-11-14T14:52:44.507Z,21.95
2022-11-14T14:55:36.490Z,21.65
2022-11-14T14:58:37.768Z,25.67
2022-11-14T15:01:51.549Z,25.88
2022-11-14T15:04:54.487Z,23.08
2022-11-14T15:07:52.533Z,27.00
2022-11-14T15:10:46.501Z,35.08
2022-11-14T15:13:35.490Z,32.72
2022-11-14T15:16:17.507Z,30.92
2022-11-14T15:19:12.514Z,32.60
2022-11-14T15:22:11.503Z,28.38
2022-11-14T15:24:44.699Z,23.25
2022-11-14T15:27:31.496Z,23.77
2022-11-14T15:30:17.516Z,24.63
2022-11-14T15:33:17.502Z,27.60
2022-11-14T15:36:14.518Z,33.25
2022-11-14T15:39:36.535Z,27.08
2022-11-14T15:42:41.542Z,22.98
2022-11-14T15:45:45.510Z,24.33
2022-11-14T15:48:29.883Z,24.48
2022-11-14T15:51:16.514Z,23.90
2022-11-14T15:53:54.663Z,25.40
2022-11-14T15:56:41.520Z,25.20
2022-11-14T15:59:14.585Z,26.63
2022-11-14T16:02:08.537Z,23.77
2022-11-14T16:04:47.473Z,25.73
2022-11-14T16:07:34.566Z,23.77
2022-11-14T16:10:14.540Z,25.85
2022-11-14T16:13:01.528Z,26.08
2022-11-14T16:15:34.607Z,23.58
2022-11-14T16:18:21.539Z,30.13
2022-11-14T16:20:59.298Z,31.63
2022-11-14T16:23:45.538Z,32.47
2022-11-14T16:26:18.602Z,49.10
2022-11-14T16:29:12.529Z,42.45
2022-11-14T16:32:06.536Z,43.78
2022-11-14T16:35:00.535Z,38.35
2022-11-14T16:37:47.534Z,45.47
2022-11-14T16:40:30.539Z,45.58
2022-11-14T16:43:27.740Z,40.42
2022-11-14T16:46:16.526Z,39.33
2022-11-14T16:48:56.549Z,40.83
2022-11-14T16:51:51.033Z,39.53
2022-11-14T16:54:37.540Z,40.15
2022-11-14T16:57:10.618Z,41.92
2022-11-14T16:59:58.522Z,38.20
2022-11-14T17:02:31.666Z,40.97
2022-11-14T17:05:18.542Z,47.90
2022-11-14T17:07:58.591Z,46.30
2022-11-14T17:10:49.543Z,52.92
2022-11-14T17:13:32.020Z,44.97
2022-11-14T17:16:18.555Z,44.38
2022-11-14T17:18:58.538Z,45.20
2022-11-14T17:21:46.564Z,47.05
2022-11-14T17:24:19.657Z,46.17
2022-11-14T17:27:06.560Z,44.92
2022-11-14T17:29:39.677Z,43.47
2022-11-14T17:32:27.547Z,44.25
2022-11-14T17:35:07.556Z,48.10
2022-11-14T17:37:59.942Z,55.05
2022-11-14T17:40:33.650Z,70.97
2022-11-14T17:43:23.549Z,72.20
2022-11-14T17:46:15.581Z,73.40
2022-11-14T17:49:02.551Z,76.57
2022-11-14T17:51:36.701Z,78.00
2022-11-14T17:54:23.568Z,77.35
2022-11-14T17:56:58.186Z,75.18
2022-11-14T17:59:45.582Z,70.90
2022-11-14T18:02:27.566Z,66.20
2022-11-14T18:05:14.561Z,65.43
2022-11-14T18:07:47.654Z,62.67
2022-11-14T18:10:34.589Z,57.47
2022-11-14T18:13:08.171Z,57.85
2022-11-14T18:15:54.601Z,57.55
2022-11-14T18:18:27.862Z,61.67
2022-11-14T18:21:17.572Z,71.97
2022-11-14T18:24:03.563Z,76.45
2022-11-14T18:26:57.596Z,108.43
2022-11-14T18:29:44.566Z,108.63
2022-11-14T18:32:18.125Z,100.43
2022-11-14T18:35:04.599Z,110.65
2022-11-14T18:37:37.638Z,101.93
2022-11-14T18:40:24.596Z,91.50
2022-11-14T18:42:57.774Z,92.90
2022-11-14T18:45:44.622Z,94.43
2022-11-14T18:48:17.641Z,89.07
2022-11-14T18:51:12.593Z,79.30
2022-11-14T18:53:52.592Z,82.93
2022-11-14T18:56:46.576Z,89.55
2022-11-14T18:59:34.597Z,112.43
2022-11-14T19:02:07.719Z,91.00
2022-11-14T19:04:54.589Z,75.28
2022-11-14T19:07:29.526Z,69.80
2022-11-14T19:10:16.593Z,63.63
2022-11-14T19:12:49.674Z,52.88
2022-11-14T19:15:36.595Z,46.53
2022-11-14T19:18:16.609Z,51.40
2022-11-14T19:21:14.607Z,41.03
2022-11-14T19:24:01.596Z,42.58
2022-11-14T19:26:35.669Z,48.90
2022-11-14T19:29:22.699Z,38.45
2022-11-14T19:31:55.709Z,46.97
2022-11-14T19:34:42.635Z,47.20
2022-11-14T19:37:15.719Z,46.58
2022-11-14T19:40:02.613Z,54.60
2022-11-14T19:42:42.600Z,66.15
2022-11-14T19:45:36.599Z,94.38
2022-11-14T19:48:23.606Z,84.50
2022-11-14T19:51:05.774Z,90.93
2022-11-14T19:53:52.596Z,80.53
2022-11-14T19:56:26.706Z,87.97
2022-11-14T19:59:17.886Z,80.95
2022-11-14T20:02:01.683Z,75.25
2022-11-14T20:04:56.646Z,74.07
2022-11-14T20:07:46.606Z,190.75
2022-11-14T20:10:19.711Z,165.35
2022-11-14T20:13:06.623Z,112.85
2022-11-14T20:15:39.714Z,112.05
2022-11-14T20:18:26.626Z,102.15
2022-11-14T20:20:59.683Z,72.10
2022-11-14T20:24:01.654Z,65.35
2022-11-14T20:26:55.621Z,71.15
2022-11-14T20:29:49.629Z,84.60
2022-11-14T20:32:43.617Z,92.95
2022-11-14T20:35:30.638Z,108.18
2022-11-14T20:38:10.628Z,98.15
2022-11-14T20:41:01.609Z,107.82
2022-11-14T20:43:42.635Z,84.90
2022-11-14T20:46:36.631Z,75.88
2022-11-14T20:49:30.639Z,79.90
2022-11-14T20:52:25.634Z,82.80
2022-11-14T20:55:19.643Z,72.30
2022-11-14T20:58:13.633Z,63.63
2022-11-14T21:01:07.631Z,63.72
2022-11-14T21:03:54.641Z,72.80
2022-11-14T21:06:27.691Z,78.22
2022-11-14T21:09:15.636Z,71.78
2022-11-14T21:11:48.695Z,91.57
2022-11-14T21:14:35.635Z,65.97
2022-11-14T21:17:15.628Z,60.85
2022-11-14T21:20:02.639Z,79.97
2022-11-14T21:22:35.716Z,72.10
2022-11-14T21:25:22.643Z,68.15
2022-11-14T21:27:56.844Z,78.78
2022-11-14T21:30:43.641Z,74.60
2022-11-14T21:33:16.706Z,67.78
2022-11-14T21:36:22.884Z,75.40
2022-11-14T21:39:05.631Z,65.25
2022-11-14T21:42:00.666Z,71.93
2022-11-14T21:44:54.648Z,79.15
2022-11-14T21:47:41.656Z,89.75
2022-11-14T21:50:17.797Z,76.88
2022-11-14T21:53:04.696Z,76.10
2022-11-14T21:55:40.730Z,76.45
2022-11-14T21:58:27.646Z,88.20
2022-11-14T22:01:00.769Z,82.18
2022-11-14T22:04:17.700Z,87.00
2022-11-14T22:06:50.874Z,78.65
2022-11-14T22:09:42.586Z,86.82
2022-11-14T22:12:24.642Z,79.60
2022-11-14T22:15:18.644Z,77.10
2022-11-14T22:18:05.688Z,88.30
2022-11-14T22:20:38.763Z,70.65
2022-11-14T22:23:28.901Z,105.63
2022-11-14T22:26:05.797Z,75.13
2022-11-14T22:29:00.657Z,80.50
2022-11-14T22:31:54.649Z,84.15
2022-11-14T22:34:48.689Z,66.53
2022-11-14T22:37:42.658Z,71.75
2022-11-14T22:40:36.668Z,57.55
2022-11-14T22:43:28.855Z,63.35
2022-11-14T22:46:02.820Z,53.50
2022-11-14T22:48:50.674Z,52.65
2022-11-14T22:51:27.706Z,66.85
2022-11-14T22:54:14.662Z,52.72
2022-11-14T22:56:48.021Z,83.18
2022-11-14T22:59:34.678Z,58.60
2022-11-14T23:02:07.784Z,56.22
2022-11-14T23:04:54.686Z,62.47
2022-11-14T23:07:27.825Z,58.75
2022-11-14T23:10:14.654Z,49.65
2022-11-14T23:12:47.783Z,54.88
2022-11-14T23:15:35.677Z,52.35
2022-11-14T23:18:08.832Z,50.53
2022-11-14T23:20:55.700Z,52.80
2022-11-14T23:23:29.101Z,52.30
2022-11-14T23:26:20.697Z,59.80
2022-11-14T23:28:53.805Z,52.53
2022-11-14T23:31:40.698Z,50.17
2022-11-14T23:34:13.783Z,59.92
2022-11-14T23:37:00.665Z,53.83
2022-11-14T23:39:33.785Z,57.78
2022-11-14T23:42:20.693Z,59.38
2022-11-14T23:44:53.780Z,55.13
2022-11-14T23:47:40.725Z,75.03
2022-11-14T23:50:16.935Z,59.25
2022-11-14T23:53:03.715Z,63.00
2022-11-14T23:55:36.756Z,63.08
2022-11-14T23:58:23.719Z,55.33
